Terminal Aerodrome Forecast
Issued by NWS Memphis, TN

Home | Current Version | Previous Version | Text Only | Print | Product List | Glossary On
Versions: 1 2 3 4 5 6 7 8 9 10 11 12 13 14 15 16 17 18
000
FTUS44 KMEG 260541
TAFJBR
TAF
KJBR 260541Z 2606/2706 18006KT P6SM BKN050
     FM261200 20007KT 4SM BR OVC015
      TEMPO 2613/2615 OVC010
     FM261700 20012G18KT P6SM OVC040
     FM262300 19010KT P6SM VCTS SCT050CB OVC250=

USA.gov is the U.S. government's official web portal to all federal, state and local government web resources and services.